KCNW/CNW METAR and TAF weather

Enter ICAO airport designator
Station Type Date Time Source
KCNW METAR 2019/08/23 17:55 UTC NOAA

KCNW 231755Z 09003KT 10SM FEW040 33/21 A2992


Station Type Date Time Source
KCNW Decoded METAR 2019/08/23 17:55 UTC NOAA

Station name not available
Aug 23, 2019 - 01:55 PM EDT / 2019.08.23 1755 UTC
Wind: from the E (090 degrees) at 3 MPH (3 KT):0
Visibility: 10 mile(s):0
Sky conditions: mostly clear
Temperature: 91 F (33 C)
Heat index: 96.1 F (35.6 C):1
Dew Point: 69 F (21 C)
Relative Humidity: 49%
Pressure (altimeter): 29.92 in. Hg (1013 hPa)
ob: KCNW 231755Z 09003KT 10SM FEW040 33/21 A2992
cycle: 18

Station Type Date Time Source
KCNW TAF UTC NOAA

Error!

Example: see airport list